Time;durP1;ratioP1;P1;durP2;ratioP2;P2;SDS_P1;SDS_P2;PMS_P1;PMS_P2;Temp;Humidity;BMP_temperature;BMP_pressure;BME280_temperature;BME280_humidity;BME280_pressure;Samples;Min_cycle;Max_cycle;Signal;HPM_P1;HPM_P2
2022/10/08 00:00:50;;;;;;;9.45;2.17;;;13.10;99.90;;;;;;5048426;28;20095;-88
2022/10/08 00:03:18;;;;;;;10.00;2.38;;;13.10;99.90;;;;;;5045941;28;20061;-88
2022/10/08 00:06:13;;;;;;;9.45;2.08;;;13.10;99.90;;;;;;5076984;28;20041;-89
2022/10/08 00:08:42;;;;;;;9.35;2.17;;;13.10;99.90;;;;;;5041503;28;20084;-90
2022/10/08 00:11:12;;;;;;;11.02;1.92;;;13.10;99.90;;;;;;5048807;28;20116;-90
2022/10/08 00:13:39;;;;;;;9.45;1.75;;;13.00;99.90;;;;;;5061161;28;20047;-88
2022/10/08 00:16:11;;;;;;;7.95;2.10;;;12.90;99.90;;;;;;5052691;28;20048;-88
2022/10/08 00:18:40;;;;;;;10.55;2.38;;;12.80;99.90;;;;;;5065405;28;20041;-88
2022/10/08 00:21:10;;;;;;;8.45;2.55;;;12.80;99.90;;;;;;5049121;28;20163;-89
2022/10/08 00:23:36;;;;;;;13.40;2.38;;;12.70;99.90;;;;;;5064340;28;20049;-88
2022/10/08 00:26:05;;;;;;;9.50;2.58;;;12.60;99.90;;;;;;5043509;28;20482;-88
2022/10/08 00:28:33;;;;;;;10.18;3.30;;;12.50;99.90;;;;;;5058712;28;20037;-89
2022/10/08 00:31:05;;;;;;;12.38;2.67;;;12.50;99.90;;;;;;5059669;28;20041;-88
2022/10/08 00:33:31;;;;;;;8.48;2.13;;;12.40;99.90;;;;;;5068980;28;20084;-89
2022/10/08 00:36:00;;;;;;;9.93;2.50;;;12.40;99.90;;;;;;5052524;28;20533;-89
2022/10/08 00:38:26;;;;;;;8.45;1.98;;;12.30;99.90;;;;;;5066739;28;20041;-88
2022/10/08 00:40:51;;;;;;;7.00;2.08;;;12.30;99.90;;;;;;5063034;28;20063;-88
2022/10/08 00:43:18;;;;;;;10.43;2.15;;;12.20;99.90;;;;;;5062051;28;20039;-87
2022/10/08 00:45:45;;;;;;;8.70;2.33;;;12.20;99.90;;;;;;5056698;28;20036;-88
2022/10/08 00:48:19;;;;;;;6.05;2.78;;;12.20;99.90;;;;;;5071002;28;20056;-88
2022/10/08 00:50:46;;;;;;;7.45;2.42;;;12.20;99.90;;;;;;5065152;28;20040;-90
2022/10/08 00:53:12;;;;;;;9.25;2.63;;;12.10;99.90;;;;;;5060237;28;20055;-89
2022/10/08 00:55:40;;;;;;;8.27;2.88;;;12.10;99.90;;;;;;5048774;28;20079;-89
2022/10/08 00:58:15;;;;;;;6.50;2.55;;;12.10;99.90;;;;;;5067633;28;20034;-89
2022/10/08 01:00:43;;;;;;;10.40;2.72;;;12.10;99.90;;;;;;5068045;28;20056;-88
2022/10/08 01:03:09;;;;;;;9.50;2.72;;;12.10;99.90;;;;;;5060402;28;20131;-89
2022/10/08 01:05:35;;;;;;;8.00;2.78;;;12.10;99.90;;;;;;5056935;28;20053;-89
2022/10/08 01:08:10;;;;;;;7.70;2.95;;;12.10;99.90;;;;;;5058914;28;20506;-89
2022/10/08 01:10:41;;;;;;;6.57;3.00;;;12.10;99.90;;;;;;5060327;28;20041;-88
2022/10/08 01:13:16;;;;;;;13.25;3.35;;;12.10;99.90;;;;;;5049021;28;20060;-89
2022/10/08 01:15:54;;;;;;;8.73;3.28;;;12.10;99.90;;;;;;5051734;28;20045;-90
2022/10/08 01:18:40;;;;;;;10.27;2.80;;;12.10;99.90;;;;;;5054815;28;20045;-88
2022/10/08 01:21:22;;;;;;;9.30;2.85;;;12.10;99.90;;;;;;5046575;28;20074;-88
2022/10/08 01:24:05;;;;;;;8.02;2.38;;;12.10;99.90;;;;;;5062847;28;20059;-90
2022/10/08 01:26:37;;;;;;;7.35;2.63;;;12.10;99.90;;;;;;5060062;28;20416;-88
2022/10/08 01:29:10;;;;;;;8.35;2.65;;;12.10;99.90;;;;;;5061968;28;20049;-89
2022/10/08 01:31:43;;;;;;;11.10;2.78;;;12.10;99.90;;;;;;5050161;28;21396;-88
2022/10/08 01:34:31;;;;;;;13.95;4.25;;;12.10;99.90;;;;;;5063206;28;20056;-89
2022/10/08 01:37:00;;;;;;;4.95;2.42;;;12.10;99.90;;;;;;5058640;28;20060;-89
2022/10/08 01:39:30;;;;;;;5.07;2.40;;;12.10;99.90;;;;;;5050165;28;20097;-89
2022/10/08 01:41:59;;;;;;;9.70;2.80;;;12.10;99.90;;;;;;5051219;28;20066;-90
2022/10/08 01:44:33;;;;;;;4.60;2.55;;;12.00;99.90;;;;;;5052725;28;20053;-88
2022/10/08 01:47:04;;;;;;;4.00;2.25;;;12.00;99.90;;;;;;5063986;28;20094;-88
2022/10/08 01:49:37;;;;;;;6.68;2.60;;;11.90;99.90;;;;;;5064605;28;20033;-89
2022/10/08 01:52:12;;;;;;;7.07;2.00;;;11.90;99.90;;;;;;5052426;28;20037;-88
2022/10/08 01:54:41;;;;;;;5.53;2.72;;;11.90;99.90;;;;;;5071513;28;20407;-89
2022/10/08 01:57:10;;;;;;;5.32;2.30;;;11.90;99.90;;;;;;5072525;28;20079;-88
2022/10/08 01:59:46;;;;;;;4.63;2.58;;;11.90;99.90;;;;;;5056907;28;20071;-88
2022/10/08 02:02:25;;;;;;;4.78;2.17;;;11.90;99.90;;;;;;5067003;28;20049;-88
2022/10/08 02:04:53;;;;;;;6.20;2.20;;;11.90;99.90;;;;;;5065167;28;20053;-88
2022/10/08 02:07:27;;;;;;;5.15;2.58;;;11.90;99.90;;;;;;5064127;28;20941;-89
2022/10/08 02:10:14;;;;;;;5.95;2.13;;;12.00;99.90;;;;;;5060651;28;20051;-87
2022/10/08 02:12:40;;;;;;;5.95;2.10;;;11.90;99.90;;;;;;5061303;28;20056;-88
2022/10/08 02:15:14;;;;;;;6.40;2.20;;;12.00;99.90;;;;;;5053956;28;20113;-89
2022/10/08 02:18:06;;;;;;;4.95;1.88;;;11.90;99.90;;;;;;5053448;28;20045;-88
2022/10/08 02:20:34;;;;;;;8.18;2.95;;;11.90;99.90;;;;;;5078749;28;20041;-87
2022/10/08 02:23:16;;;;;;;5.30;1.88;;;11.90;99.90;;;;;;5062323;28;20068;-88
2022/10/08 02:25:58;;;;;;;6.00;1.70;;;11.80;99.90;;;;;;5063718;28;20044;-88
2022/10/08 02:28:50;;;;;;;7.60;2.17;;;11.80;99.90;;;;;;5064545;28;20045;-87
2022/10/08 02:31:29;;;;;;;5.00;2.45;;;11.80;99.90;;;;;;5071283;28;20043;-88
2022/10/08 02:34:20;;;;;;;6.28;2.58;;;11.80;99.90;;;;;;5068329;28;20049;-88
2022/10/08 02:37:05;;;;;;;5.32;1.75;;;11.80;99.90;;;;;;5052294;28;20123;-88
2022/10/08 02:39:35;;;;;;;2.95;1.70;;;11.80;99.90;;;;;;5060904;28;20071;-88
2022/10/08 02:42:09;;;;;;;2.97;1.73;;;11.80;99.90;;;;;;5054014;28;20080;-89
2022/10/08 02:44:39;;;;;;;2.67;1.40;;;11.70;99.90;;;;;;5063357;28;20096;-88
2022/10/08 02:47:11;;;;;;;4.75;1.67;;;11.60;99.90;;;;;;5067121;28;20045;-88
2022/10/08 02:49:43;;;;;;;7.95;1.70;;;11.60;99.90;;;;;;5059949;28;20721;-88
2022/10/08 02:52:09;;;;;;;7.87;1.33;;;11.50;99.90;;;;;;5069714;28;20045;-88
2022/10/08 02:54:37;;;;;;;4.18;1.55;;;11.50;99.90;;;;;;5066772;28;20076;-88
2022/10/08 02:57:06;;;;;;;6.07;1.70;;;11.50;99.90;;;;;;5065634;28;20422;-90
2022/10/08 02:59:32;;;;;;;2.80;1.35;;;11.40;99.90;;;;;;5049300;28;20091;-88
2022/10/08 03:02:04;;;;;;;4.78;1.27;;;11.40;99.90;;;;;;5050563;28;20060;-89
2022/10/08 03:04:32;;;;;;;2.93;1.20;;;11.40;99.90;;;;;;5086406;28;20045;-88
2022/10/08 03:06:59;;;;;;;3.40;1.45;;;11.30;99.90;;;;;;5050337;28;20304;-89
2022/10/08 03:09:38;;;;;;;4.05;1.10;;;11.30;99.90;;;;;;5052297;28;20041;-89
2022/10/08 03:12:05;;;;;;;8.68;1.48;;;11.30;99.90;;;;;;5042928;28;20041;-88
2022/10/08 03:14:36;;;;;;;8.05;1.80;;;11.20;99.90;;;;;;5060997;28;20040;-89
2022/10/08 03:17:02;;;;;;;4.53;1.40;;;11.20;99.90;;;;;;5049787;28;20051;-88
2022/10/08 03:19:27;;;;;;;3.88;1.33;;;11.10;99.90;;;;;;5047036;28;20480;-89
2022/10/08 03:21:55;;;;;;;6.95;1.77;;;11.00;99.90;;;;;;5058142;28;20041;-88
2022/10/08 03:24:21;;;;;;;6.55;1.40;;;11.00;99.90;;;;;;5061181;28;20056;-89
2022/10/08 03:26:47;;;;;;;6.45;1.85;;;11.00;99.90;;;;;;5065842;28;20412;-89
2022/10/08 03:29:12;;;;;;;8.43;1.75;;;11.00;99.90;;;;;;5042928;28;20049;-88
2022/10/08 03:31:38;;;;;;;5.95;1.40;;;10.90;99.90;;;;;;5047660;28;20076;-89
2022/10/08 03:34:04;;;;;;;6.45;1.83;;;10.90;99.90;;;;;;5051870;28;21055;-90
2022/10/08 03:36:30;;;;;;;3.10;1.58;;;10.90;99.90;;;;;;5042262;28;20068;-89
2022/10/08 03:38:56;;;;;;;6.72;1.50;;;10.90;99.90;;;;;;5043349;28;20104;-88
2022/10/08 03:41:22;;;;;;;3.75;1.15;;;10.90;99.90;;;;;;5055003;28;20044;-88
2022/10/08 03:43:48;;;;;;;6.22;1.60;;;10.80;99.90;;;;;;5051583;28;20036;-89
2022/10/08 03:46:14;;;;;;;5.18;1.73;;;10.80;99.90;;;;;;5051828;28;20049;-89
2022/10/08 03:48:40;;;;;;;14.25;1.90;;;10.80;99.90;;;;;;5052275;28;20045;-89
2022/10/08 03:51:16;;;;;;;6.13;1.83;;;10.80;99.90;;;;;;5069618;28;20071;-89
2022/10/08 03:53:42;;;;;;;6.78;1.67;;;10.80;99.90;;;;;;5064060;28;20036;-89
2022/10/08 03:56:14;;;;;;;6.13;1.55;;;10.80;99.90;;;;;;5071119;28;20037;-90
2022/10/08 03:58:41;;;;;;;5.25;1.80;;;10.90;99.90;;;;;;5056488;28;20064;-89
2022/10/08 04:01:12;;;;;;;8.00;1.85;;;10.90;99.90;;;;;;5050426;28;20083;-88
2022/10/08 04:03:39;;;;;;;7.10;2.00;;;10.90;99.90;;;;;;5051952;28;20079;-89
2022/10/08 04:06:05;;;;;;;10.02;2.15;;;10.90;99.90;;;;;;5051959;28;20042;-89
2022/10/08 04:08:32;;;;;;;10.63;2.72;;;10.90;99.90;;;;;;5050410;28;20117;-89
2022/10/08 04:11:05;;;;;;;3.90;1.80;;;10.90;99.90;;;;;;5049451;28;20060;-88
2022/10/08 04:13:31;;;;;;;7.28;2.20;;;11.00;99.90;;;;;;5063625;28;20048;-89
2022/10/08 04:16:02;;;;;;;6.90;2.13;;;11.00;99.90;;;;;;5060797;28;20135;-89
2022/10/08 04:18:28;;;;;;;4.88;2.15;;;11.00;99.90;;;;;;5066913;28;20060;-89
2022/10/08 04:21:03;;;;;;;6.85;1.75;;;11.10;99.90;;;;;;5061034;28;20063;-88
2022/10/08 04:23:31;;;;;;;8.90;2.00;;;11.10;99.90;;;;;;5056325;28;20087;-88
2022/10/08 04:25:57;;;;;;;12.13;2.50;;;11.20;99.90;;;;;;5053290;28;20054;-88
2022/10/08 04:28:23;;;;;;;7.07;2.05;;;11.20;99.90;;;;;;5060079;28;20470;-89
2022/10/08 04:30:55;;;;;;;5.75;2.22;;;11.20;99.90;;;;;;5042918;28;20214;-89
2022/10/08 04:33:21;;;;;;;5.30;2.03;;;11.20;99.90;;;;;;5056557;28;20045;-89
2022/10/08 04:35:47;;;;;;;6.53;2.20;;;11.30;99.90;;;;;;5044279;28;20089;-89
2022/10/08 04:38:13;;;;;;;6.63;2.00;;;11.30;99.90;;;;;;5042772;28;20505;-88
2022/10/08 04:40:39;;;;;;;8.27;2.55;;;11.30;99.90;;;;;;5041770;28;20049;-88
2022/10/08 04:43:05;;;;;;;8.55;2.13;;;11.40;99.90;;;;;;5062140;28;20079;-87
2022/10/08 04:45:30;;;;;;;7.47;2.30;;;11.40;99.90;;;;;;5055464;28;20048;-87
2022/10/08 04:47:56;;;;;;;5.65;1.70;;;11.40;99.90;;;;;;5062280;28;20056;-88
2022/10/08 04:50:22;;;;;;;5.28;1.85;;;11.40;99.90;;;;;;5046852;28;20087;-88
2022/10/08 04:52:47;;;;;;;8.88;3.10;;;11.40;99.90;;;;;;5046894;28;20496;-87
2022/10/08 04:55:13;;;;;;;4.65;1.55;;;11.40;99.90;;;;;;5044695;28;20560;-87
2022/10/08 04:57:39;;;;;;;6.22;2.13;;;11.30;99.90;;;;;;5049164;28;20040;-87
2022/10/08 05:00:05;;;;;;;11.07;2.28;;;11.30;99.90;;;;;;5072442;28;20045;-87
2022/10/08 05:02:31;;;;;;;4.82;1.50;;;11.20;99.90;;;;;;5066800;28;20473;-88
2022/10/08 05:04:57;;;;;;;6.32;2.05;;;11.20;99.90;;;;;;5072492;28;20060;-88
2022/10/08 05:07:23;;;;;;;9.30;1.55;;;11.20;99.90;;;;;;5047552;28;20040;-86
2022/10/08 05:09:49;;;;;;;8.90;2.10;;;11.20;99.90;;;;;;5055200;28;20045;-87
2022/10/08 05:12:15;;;;;;;3.85;1.98;;;11.20;99.90;;;;;;5047379;28;20077;-88
2022/10/08 05:14:40;;;;;;;8.02;1.98;;;11.30;99.90;;;;;;5041305;28;20041;-88
2022/10/08 05:17:06;;;;;;;7.43;1.73;;;11.30;99.90;;;;;;5058769;28;20045;-88
2022/10/08 05:19:32;;;;;;;4.80;2.05;;;11.30;99.90;;;;;;5036417;28;20104;-88
2022/10/08 05:21:58;;;;;;;7.18;2.53;;;11.20;99.90;;;;;;5049380;28;20076;-87
2022/10/08 05:24:24;;;;;;;4.32;2.00;;;11.10;99.90;;;;;;5063193;28;20052;-87
2022/10/08 05:26:51;;;;;;;9.98;2.35;;;11.10;99.90;;;;;;5058490;28;20040;-88
2022/10/08 05:29:17;;;;;;;8.48;2.38;;;11.00;99.90;;;;;;5050288;28;20052;-87
2022/10/08 05:31:43;;;;;;;11.48;3.40;;;11.00;99.90;;;;;;5053375;28;20045;-88
2022/10/08 05:34:11;;;;;;;5.85;1.80;;;10.90;99.90;;;;;;5043284;28;20033;-87
2022/10/08 05:36:37;;;;;;;5.28;1.90;;;10.90;99.90;;;;;;5044864;28;20140;-87
2022/10/08 05:39:04;;;;;;;4.00;2.30;;;10.80;99.90;;;;;;5036889;28;20080;-87
2022/10/08 05:41:33;;;;;;;7.07;2.30;;;10.70;99.90;;;;;;5062507;28;20079;-87
2022/10/08 05:44:02;;;;;;;9.52;3.03;;;10.70;99.90;;;;;;5062793;28;20041;-87
2022/10/08 05:46:30;;;;;;;4.88;1.90;;;10.70;99.90;;;;;;5063103;28;20061;-88
2022/10/08 05:48:57;;;;;;;8.98;1.98;;;10.70;99.90;;;;;;5066583;28;20032;-87
2022/10/08 05:51:23;;;;;;;4.47;2.05;;;10.60;99.90;;;;;;5069468;28;20049;-87
2022/10/08 05:53:51;;;;;;;5.05;1.67;;;10.60;99.90;;;;;;5049996;28;20048;-87
2022/10/08 05:56:19;;;;;;;5.40;2.20;;;10.60;99.90;;;;;;5062687;28;20069;-88
2022/10/08 05:58:45;;;;;;;9.07;4.15;;;10.50;99.90;;;;;;5060752;28;20075;-87
2022/10/08 06:01:30;;;;;;;6.95;2.15;;;10.50;99.90;;;;;;5062873;28;20044;-86
2022/10/08 06:04:00;;;;;;;8.52;1.95;;;10.50;99.90;;;;;;5047820;28;20091;-86
2022/10/08 06:06:27;;;;;;;10.02;2.65;;;10.50;99.90;;;;;;5054371;28;20044;-86
2022/10/08 06:08:54;;;;;;;7.35;2.33;;;10.40;99.90;;;;;;5064628;28;20052;-86
2022/10/08 06:11:20;;;;;;;7.95;2.92;;;10.50;99.90;;;;;;5059203;28;20037;-87
2022/10/08 06:13:46;;;;;;;6.80;2.00;;;10.40;99.90;;;;;;5047150;28;20254;-86
2022/10/08 06:16:12;;;;;;;7.13;2.55;;;10.40;99.90;;;;;;5028778;28;20037;-86
2022/10/08 06:18:40;;;;;;;5.25;2.58;;;10.40;99.90;;;;;;5043482;28;20079;-86
2022/10/08 06:21:12;;;;;;;8.02;2.72;;;10.40;99.90;;;;;;5049616;28;20041;-86
2022/10/08 06:23:39;;;;;;;8.10;3.10;;;10.40;99.90;;;;;;5062527;28;20048;-86
2022/10/08 06:26:08;;;;;;;5.60;2.28;;;10.40;99.90;;;;;;5064071;28;20048;-87
2022/10/08 06:28:35;;;;;;;7.78;2.67;;;10.40;99.90;;;;;;5066680;28;20052;-86
2022/10/08 06:31:02;;;;;;;11.43;2.47;;;10.40;99.90;;;;;;5054254;28;20055;-87
2022/10/08 06:33:28;;;;;;;7.57;2.33;;;10.50;99.90;;;;;;5064381;28;20063;-87
2022/10/08 06:35:54;;;;;;;8.35;3.03;;;10.50;99.90;;;;;;5055271;28;20072;-88
2022/10/08 06:38:21;;;;;;;8.23;2.67;;;10.50;99.90;;;;;;5068934;28;20082;-87
2022/10/08 06:40:47;;;;;;;6.25;2.63;;;10.50;99.90;;;;;;5053355;28;20048;-89
2022/10/08 06:43:16;;;;;;;11.48;4.07;;;10.50;99.90;;;;;;5049316;28;20484;-89
2022/10/08 06:45:42;;;;;;;12.68;3.33;;;10.50;99.90;;;;;;5060691;28;20515;-88
2022/10/08 06:48:09;;;;;;;7.07;2.67;;;10.60;99.90;;;;;;5061870;28;20041;-88
2022/10/08 06:50:35;;;;;;;10.07;3.10;;;10.60;99.90;;;;;;5046277;28;20056;-89
2022/10/08 06:53:02;;;;;;;10.13;2.95;;;10.70;99.90;;;;;;5056637;28;20048;-89
2022/10/08 06:55:28;;;;;;;8.90;2.50;;;10.70;99.90;;;;;;5060439;28;20449;-90
2022/10/08 06:57:54;;;;;;;7.88;3.42;;;10.80;99.90;;;;;;5039878;28;20070;-87
2022/10/08 07:00:20;;;;;;;9.75;3.10;;;10.90;99.90;;;;;;5050241;28;20100;-87
2022/10/08 07:02:45;;;;;;;9.23;3.15;;;10.90;99.90;;;;;;5064455;28;20047;-87
2022/10/08 07:05:11;;;;;;;12.82;3.42;;;10.90;99.90;;;;;;5060219;28;20037;-86
2022/10/08 07:07:37;;;;;;;13.90;3.70;;;10.90;99.90;;;;;;5059648;28;20075;-88
2022/10/08 07:10:03;;;;;;;14.13;3.25;;;11.00;99.90;;;;;;5049793;28;20049;-88
2022/10/08 07:12:30;;;;;;;10.25;3.10;;;11.00;99.90;;;;;;5042625;28;20056;-87
2022/10/08 07:14:55;;;;;;;7.55;2.88;;;11.10;99.90;;;;;;5074701;28;20044;-88
2022/10/08 07:17:24;;;;;;;7.63;2.53;;;11.20;99.90;;;;;;5057690;28;20056;-88
2022/10/08 07:19:51;;;;;;;9.10;3.28;;;11.30;99.90;;;;;;5052821;28;20624;-88
2022/10/08 07:22:17;;;;;;;9.30;3.05;;;11.40;99.90;;;;;;5059730;28;20076;-87
2022/10/08 07:24:42;;;;;;;9.35;2.60;;;11.50;99.90;;;;;;5025030;28;20037;-90
2022/10/08 07:27:08;;;;;;;5.57;2.33;;;11.50;99.90;;;;;;5064717;28;20115;-86
2022/10/08 07:29:34;;;;;;;10.27;3.17;;;11.60;99.90;;;;;;5058139;28;20087;-89
2022/10/08 07:32:00;;;;;;;9.85;3.15;;;11.70;99.90;;;;;;5037045;28;20059;-87
2022/10/08 07:34:25;;;;;;;5.45;2.50;;;11.70;99.90;;;;;;5045608;28;20079;-89
2022/10/08 07:36:51;;;;;;;13.25;2.55;;;11.80;99.90;;;;;;5043636;28;20049;-89
2022/10/08 07:39:18;;;;;;;14.18;3.17;;;11.80;99.90;;;;;;5042190;28;20075;-89
2022/10/08 07:41:45;;;;;;;7.68;2.38;;;11.80;99.90;;;;;;5058435;28;20864;-86
2022/10/08 07:44:11;;;;;;;9.88;2.15;;;11.80;99.90;;;;;;5069285;28;20048;-87
2022/10/08 07:46:42;;;;;;;8.02;1.65;;;11.80;99.90;;;;;;5056815;28;20052;-86
2022/10/08 07:49:08;;;;;;;10.20;2.10;;;11.80;99.90;;;;;;5059252;28;20044;-87
2022/10/08 07:51:34;;;;;;;13.57;2.38;;;11.80;99.90;;;;;;5053966;28;20091;-85
2022/10/08 07:54:02;;;;;;;12.02;2.15;;;11.80;99.90;;;;;;5054870;28;20045;-88
2022/10/08 07:56:28;;;;;;;9.25;1.67;;;11.80;99.90;;;;;;5043148;28;20049;-87
2022/10/08 07:59:00;;;;;;;7.45;1.88;;;11.90;99.90;;;;;;5042810;28;20068;-86
2022/10/08 08:01:28;;;;;;;5.68;1.30;;;11.90;99.90;;;;;;5042852;28;20037;-86
2022/10/08 08:04:00;;;;;;;7.00;1.38;;;12.00;99.90;;;;;;5075869;28;20056;-87
2022/10/08 08:06:37;;;;;;;7.20;1.40;;;12.00;99.90;;;;;;5074288;28;20087;-88
2022/10/08 08:09:03;;;;;;;2.90;0.77;;;12.10;99.90;;;;;;5073134;28;20041;-86
2022/10/08 08:11:29;;;;;;;8.00;1.02;;;12.10;99.90;;;;;;5059012;28;20097;-86
2022/10/08 08:13:55;;;;;;;15.18;2.78;;;12.20;99.90;;;;;;5079599;28;20049;-87
2022/10/08 08:16:25;;;;;;;6.53;1.27;;;12.20;99.90;;;;;;5073812;28;20048;-87
2022/10/08 08:18:54;;;;;;;7.72;1.13;;;12.30;99.90;;;;;;5055670;28;20044;-86
2022/10/08 08:21:23;;;;;;;8.20;3.25;;;12.30;99.90;;;;;;5060532;28;20108;-87
2022/10/08 08:23:51;;;;;;;13.07;1.27;;;12.30;99.90;;;;;;5055738;28;20075;-87
2022/10/08 08:26:24;;;;;;;9.13;1.60;;;12.40;99.90;;;;;;5049136;28;20448;-87
2022/10/08 08:28:55;;;;;;;6.55;0.80;;;12.50;99.90;;;;;;5062070;28;20049;-86
2022/10/08 08:31:26;;;;;;;5.03;0.90;;;12.70;99.90;;;;;;5071557;28;20049;-86
2022/10/08 08:33:57;;;;;;;9.23;1.55;;;12.80;99.90;;;;;;5065514;28;20349;-87
2022/10/08 08:36:26;;;;;;;3.65;1.02;;;12.80;99.90;;;;;;5059544;28;21881;-90
2022/10/08 08:38:52;;;;;;;6.18;1.90;;;13.00;99.90;;;;;;5074066;28;20056;-89
2022/10/08 08:41:32;;;;;;;9.98;1.65;;;13.00;99.90;;;;;;5062500;28;20052;-90
2022/10/08 08:44:07;;;;;;;8.13;1.50;;;13.10;99.90;;;;;;5059163;28;20060;-89
2022/10/08 08:46:39;;;;;;;5.40;1.00;;;13.10;99.90;;;;;;5062662;28;20048;-89
2022/10/08 08:49:13;;;;;;;4.60;0.90;;;13.20;99.90;;;;;;5074651;28;20045;-91
2022/10/08 08:51:38;;;;;;;8.25;0.90;;;13.30;99.90;;;;;;5050818;28;20060;-92
2022/10/08 08:54:04;;;;;;;12.50;1.40;;;13.40;99.90;;;;;;5034548;28;20041;-90
2022/10/08 08:56:32;;;;;;;5.00;0.80;;;13.40;99.90;;;;;;5062244;28;20041;-88
2022/10/08 08:59:33;;;;;;;5.82;1.25;;;13.50;99.90;;;;;;5057346;28;20095;-86
2022/10/08 09:02:08;;;;;;;3.05;1.02;;;13.50;99.90;;;;;;5056485;28;20083;-89
2022/10/08 09:04:49;;;;;;;5.47;0.85;;;13.50;99.90;;;;;;5064714;28;20040;-88
2022/10/08 09:07:19;;;;;;;3.53;0.73;;;13.60;99.90;;;;;;5067388;28;20052;-87
2022/10/08 09:09:51;;;;;;;4.32;1.00;;;13.60;99.90;;;;;;5075884;28;20037;-87
2022/10/08 09:12:26;;;;;;;;;;;13.70;99.90;;;;;;5079505;28;20559;-89
2022/10/08 09:14:55;;;;;;;8.50;1.27;;;13.70;99.90;;;;;;5075417;28;19935;-86
2022/10/08 09:17:30;;;;;;;8.32;1.33;;;13.80;99.90;;;;;;5062983;28;20102;-86
2022/10/08 09:19:56;;;;;;;4.65;0.63;;;14.00;99.90;;;;;;5056010;28;20041;-85
2022/10/08 09:22:24;;;;;;;6.55;1.00;;;14.10;99.90;;;;;;5065545;28;20052;-86
2022/10/08 09:24:57;;;;;;;6.90;1.08;;;14.20;99.90;;;;;;5077115;28;20032;-88
2022/10/08 09:27:23;;;;;;;3.83;0.82;;;14.50;99.90;;;;;;5066068;28;20128;-86
2022/10/08 09:29:48;;;;;;;7.63;1.10;;;14.90;99.90;;;;;;5084568;28;20106;-91
2022/10/08 09:32:17;;;;;;;5.75;1.27;;;15.00;99.90;;;;;;5065032;28;20043;-89
2022/10/08 09:34:45;;;;;;;7.65;1.73;;;14.90;99.90;;;;;;5085647;28;20040;-90
2022/10/08 09:37:21;;;;;;;9.30;1.73;;;15.10;99.90;;;;;;5070503;28;20262;-90
2022/10/08 09:40:06;;;;;;;5.47;1.52;;;15.80;99.90;;;;;;5075036;28;20063;-89
2022/10/08 09:42:32;;;;;;;5.50;1.25;;;16.40;99.90;;;;;;5073784;28;20041;-88
2022/10/08 09:45:02;;;;;;;2.60;1.10;;;16.40;99.90;;;;;;5066379;28;20040;-89
2022/10/08 09:47:32;;;;;;;10.68;5.28;;;16.50;99.90;;;;;;5064906;28;20029;-89
2022/10/08 09:50:28;;;;;;;9.93;5.70;;;17.10;99.90;;;;;;5070861;28;20104;-88
2022/10/08 09:52:54;;;;;;;8.80;1.80;;;17.80;99.90;;;;;;5081106;28;20059;-87
2022/10/08 09:55:28;;;;;;;7.13;2.03;;;18.50;99.90;;;;;;5070008;28;20048;-89
2022/10/08 09:58:02;;;;;;;4.63;1.27;;;18.60;99.90;;;;;;5090643;28;20044;-88
2022/10/08 10:00:38;;;;;;;3.95;1.20;;;18.50;99.90;;;;;;5055932;28;20080;-89
2022/10/08 10:03:14;;;;;;;13.80;2.13;;;18.30;99.90;;;;;;5077313;28;20057;-90
2022/10/08 10:05:40;;;;;;;4.85;1.33;;;18.30;99.90;;;;;;5077238;28;20033;-89
2022/10/08 10:08:06;;;;;;;3.15;0.90;;;18.10;99.90;;;;;;5081139;28;20049;-88
2022/10/08 10:10:35;;;;;;;3.42;0.82;;;17.90;99.90;;;;;;5064999;28;20048;-88
2022/10/08 10:13:04;;;;;;;9.10;1.10;;;17.80;99.90;;;;;;5083673;28;20036;-88
2022/10/08 10:16:01;;;;;;;5.25;1.05;;;17.40;99.90;;;;;;5070055;28;20495;-88
2022/10/08 10:18:40;;;;;;;4.53;0.80;;;17.10;99.90;;;;;;5059553;28;20091;-90
2022/10/08 10:21:11;;;;;;;2.58;1.02;;;16.90;99.90;;;;;;5062148;28;20408;-91
2022/10/08 10:23:43;;;;;;;5.63;1.17;;;16.60;99.90;;;;;;5061270;28;20049;-91
2022/10/08 10:26:28;;;;;;;10.02;0.98;;;16.40;99.90;;;;;;5071379;28;20121;-89
2022/10/08 10:29:03;;;;;;;6.05;1.23;;;16.10;99.90;;;;;;5061050;28;20048;-92
2022/10/08 10:31:38;;;;;;;6.85;1.23;;;16.00;99.90;;;;;;5066671;28;20044;-93
2022/10/08 10:34:09;;;;;;;4.90;0.60;;;16.10;99.90;;;;;;5084905;28;20045;-89
2022/10/08 10:36:42;;;;;;;5.22;0.95;;;16.10;99.90;;;;;;5047913;28;20131;-92
2022/10/08 10:39:20;;;;;;;6.18;1.08;;;16.00;99.90;;;;;;5075693;28;20048;-90
2022/10/08 10:42:23;;;;;;;5.40;1.00;;;15.90;99.90;;;;;;5072020;28;20048;-87
2022/10/08 10:44:48;;;;;;;;;;;15.70;99.90;;;;;;5044469;28;20494;-86
2022/10/08 10:47:16;;;;;;;6.32;1.00;;;15.50;99.90;;;;;;5061354;28;19938;-91
2022/10/08 10:49:42;;;;;;;4.00;1.23;;;15.60;99.90;;;;;;5069870;28;20062;-87
2022/10/08 10:52:50;;;;;;;10.93;1.02;;;15.70;99.90;;;;;;5059462;28;20047;-91
2022/10/08 10:55:21;;;;;;;4.18;0.80;;;15.90;99.90;;;;;;5065266;28;20062;-90
2022/10/08 10:58:15;;;;;;;3.67;0.88;;;16.10;99.90;;;;;;5063710;28;20044;-85
2022/10/08 11:01:16;;;;;;;7.03;0.57;;;16.10;99.90;;;;;;5073687;28;20056;-86
2022/10/08 11:03:49;;;;;;;11.50;0.90;;;16.30;99.90;;;;;;5049637;28;20074;-87
2022/10/08 11:06:27;;;;;;;6.20;0.73;;;16.30;99.90;;;;;;5050733;28;20037;-86
2022/10/08 11:09:11;;;;;;;6.30;1.00;;;16.30;99.90;;;;;;5060980;28;20060;-88
2022/10/08 11:11:51;;;;;;;6.65;1.35;;;16.40;99.90;;;;;;5071053;28;20052;-81
2022/10/08 11:14:39;;;;;;;5.30;0.70;;;16.60;99.90;;;;;;5064027;28;20042;-83
2022/10/08 11:17:16;;;;;;;2.40;0.43;;;16.80;99.90;;;;;;5064583;28;20053;-83
2022/10/08 11:20:18;;;;;;;3.03;0.70;;;17.00;99.90;;;;;;5066646;28;20049;-85
2022/10/08 11:22:56;;;;;;;4.35;1.92;;;16.90;99.90;;;;;;5061183;28;20059;-86
2022/10/08 11:25:41;;;;;;;2.20;0.57;;;16.90;99.90;;;;;;5056985;28;20038;-86
2022/10/08 11:28:19;;;;;;;4.65;0.82;;;16.90;99.90;;;;;;5061228;28;20056;-87
2022/10/08 11:31:05;;;;;;;9.32;0.90;;;17.00;99.90;;;;;;5065008;28;20450;-86
2022/10/08 11:33:31;;;;;;;4.68;0.80;;;17.10;99.90;;;;;;5058265;28;20049;-87
2022/10/08 11:36:28;;;;;;;5.97;0.80;;;17.30;99.90;;;;;;5059800;28;20033;-86
2022/10/08 11:39:15;;;;;;;3.47;0.93;;;17.20;98.00;;;;;;5043309;28;20041;-85
2022/10/08 11:41:53;;;;;;;3.67;0.70;;;17.40;99.90;;;;;;5063488;28;20056;-86
2022/10/08 11:44:20;;;;;;;5.10;0.77;;;17.50;99.90;;;;;;5059680;28;20110;-86
2022/10/08 11:46:46;;;;;;;4.57;1.02;;;17.50;99.90;;;;;;5042157;28;20044;-84
2022/10/08 11:49:14;;;;;;;6.40;0.85;;;17.40;99.90;;;;;;5071338;28;20104;-85
2022/10/08 11:51:45;;;;;;;5.18;0.93;;;17.20;99.90;;;;;;5059142;28;20051;-86
2022/10/08 11:54:33;;;;;;;5.72;1.13;;;17.00;99.90;;;;;;5058382;28;20061;-85
2022/10/08 11:57:15;;;;;;;4.78;1.13;;;16.90;97.00;;;;;;5059355;28;20545;-85
2022/10/08 12:00:04;;;;;;;3.95;0.93;;;16.90;98.50;;;;;;5066210;28;20045;-85
2022/10/08 12:02:31;;;;;;;5.28;0.82;;;16.90;94.80;;;;;;5045609;28;20052;-85
2022/10/08 12:05:41;;;;;;;5.20;0.70;;;17.10;98.60;;;;;;5042716;28;20044;-85
2022/10/08 12:08:07;;;;;;;4.68;1.00;;;17.10;93.20;;;;;;5059413;28;20100;-85
2022/10/08 12:10:35;;;;;;;2.70;0.77;;;17.20;97.80;;;;;;5081818;28;20056;-84
2022/10/08 12:13:23;;;;;;;3.67;0.80;;;17.10;98.40;;;;;;5054686;28;20108;-85
2022/10/08 12:15:51;;;;;;;6.07;0.80;;;17.30;98.50;;;;;;5059895;28;20650;-86
2022/10/08 12:18:22;;;;;;;4.20;0.80;;;17.30;98.40;;;;;;5060550;28;20044;-85
2022/10/08 12:21:14;;;;;;;2.42;0.50;;;17.40;98.40;;;;;;5079466;28;20048;-85
2022/10/08 12:23:40;;;;;;;3.15;0.57;;;17.40;92.20;;;;;;5060441;28;20056;-86
2022/10/08 12:26:07;;;;;;;3.35;0.90;;;17.30;96.70;;;;;;5063504;28;20045;-85
2022/10/08 12:28:34;;;;;;;3.95;0.77;;;17.00;96.70;;;;;;5057677;28;20056;-86
2022/10/08 12:31:21;;;;;;;4.13;0.70;;;16.80;97.40;;;;;;5064722;28;20048;-84
2022/10/08 12:34:10;;;;;;;6.25;0.80;;;16.70;96.60;;;;;;5054231;28;20063;-85
2022/10/08 12:36:39;;;;;;;4.03;0.55;;;16.60;94.50;;;;;;5066175;28;20084;-86
2022/10/08 12:39:10;;;;;;;5.35;0.75;;;16.60;95.30;;;;;;5063763;28;20056;-87
2022/10/08 12:42:02;;;;;;;5.03;0.98;;;16.70;96.00;;;;;;5076955;28;20131;-86
2022/10/08 12:45:19;;;;;;;3.78;0.75;;;16.70;94.20;;;;;;5069297;28;20048;-86
2022/10/08 12:48:00;;;;;;;5.47;0.68;;;16.80;94.60;;;;;;5055609;28;20108;-85
2022/10/08 12:50:55;;;;;;;4.70;1.08;;;16.90;96.50;;;;;;5078032;28;20071;-86
2022/10/08 12:53:21;;;;;;;5.05;1.05;;;17.00;96.10;;;;;;5044206;28;20053;-86
2022/10/08 12:55:53;;;;;;;2.65;0.70;;;17.10;97.40;;;;;;5058035;28;20064;-86
2022/10/08 12:58:28;;;;;;;4.72;0.70;;;17.10;96.20;;;;;;5058045;28;20056;-86
2022/10/08 13:01:04;;;;;;;6.13;0.63;;;17.10;95.60;;;;;;5042345;28;20096;-85
2022/10/08 13:03:29;;;;;;;4.43;0.70;;;17.00;93.80;;;;;;5042152;28;20064;-86
2022/10/08 13:05:56;;;;;;;7.43;0.90;;;16.70;95.10;;;;;;5059177;28;20052;-85
2022/10/08 13:08:38;;;;;;;8.20;1.02;;;16.50;95.80;;;;;;5058021;28;20111;-84